• Join FlightAware (Why Join?)
  • Login
  • US Flag 
04:22PM EDT


 

Airport Tracker/Info


-or-


 

Live Flight TrackerFlight Track Log ✈ AAL832 ✈ 28-Apr-2013 ✈ KLAX - KORD

Flight Track Log - Related Links

Times and Time Zones

All times are in EDT time to prevent confusion due to time zone crossing. See the AAL832 flight status page for this flight to view local times or setup timezone preferences in your user account.

Time Position Orientation Groundspeed Altitude Reporting Facility
EDT Latitude Longitude Course Direction KTS MPH feet Rate Location/Type
12:14PM 33.9333 -118.4333 55° Northeast 175 201 2,000  Level Southern California TRACON
12:15PM 33.9167 -118.5000 253° West 230 265 3,500 1,620 Climbing Southern California TRACON
12:15PM 33.9122 -118.5117 245° Southwest 231 266 3,900 3,000 Climbing Los Angeles Center
12:16PM 34.1172 -118.0990 59° Northeast  Level FlightAware Approximate
12:16PM 33.8503 -118.5575 212° Southwest 277 319 7,400  Level Los Angeles Center
12:17PM 34.1794 -117.9746 59° Northeast  Level FlightAware Approximate
12:17PM 33.8272 -118.4867 111° Southeast 279 321 10,100  Level Los Angeles Center
12:18PM 34.2433 -117.8517 51° Northeast  Level FlightAware Approximate
12:18PM 33.9008 -118.4386 28° Northeast 318 366 11,900  Level Los Angeles Center
12:19PM 34.3105 -117.7359 55° Northeast  Level FlightAware Approximate
12:19PM 34.0067 -118.3711 28° Northeast 378 435 14,200  Level Los Angeles Center
12:20PM 34.0478 -118.2467 68° East 393 452 17,000 2,340 Climbing Los Angeles Center
12:21PM 34.1097 -118.1314 57° Northeast 410 472 19,100 1,980 Climbing Los Angeles Center
12:22PM 34.1739 -118.0097 57° Northeast 423 487 21,200 1,980 Climbing Los Angeles Center
12:23PM 34.2431 -117.8861 56° Northeast 437 503 23,200 1,920 Climbing Los Angeles Center
12:24PM 34.3139 -117.7614 55° Northeast 445 512 25,200 1,620 Climbing Los Angeles Center
12:26PM 34.3908 -117.6414 52° Northeast 452 520 26,900 1,920 Climbing Los Angeles Center
12:27PM 34.5072 -117.4769 49° Northeast 461 531 29,600 2,160 Climbing Los Angeles Center
12:28PM 34.5892 -117.3603 50° Northeast 460 529 31,500 1,740 Climbing Los Angeles Center
12:29PM 34.6689 -117.2450 50° Northeast 454 522 33,200 1,560 Climbing Los Angeles Center
12:30PM 34.7486 -117.1294 50° Northeast 450 518 34,800 1,440 Climbing Los Angeles Center
12:31PM 34.8436 -116.9914 50° Northeast 450 518 36,200 1,020 Climbing Los Angeles Center
12:32PM 34.9242 -116.8753 50° Northeast 451 519 37,000 360 Climbing Los Angeles Center
12:33PM 35.0036 -116.7572 51° Northeast 453 521 37,000  Level Los Angeles Center
12:34PM 35.0839 -116.6411 50° Northeast 451 519 37,000  Level Los Angeles Center
12:35PM 35.1636 -116.5228 50° Northeast 452 520 37,000  Level Los Angeles Center
12:36PM 35.2628 -116.3811 49° Northeast 459 528 37,000  Level Los Angeles Center
12:37PM 35.3422 -116.2631 50° Northeast 453 521 37,000  Level Los Angeles Center
12:38PM 35.4208 -116.1433 51° Northeast 452 520 37,000  Level Los Angeles Center
12:39PM 35.4867 -116.0486 50° Northeast 454 522 37,000  Level Los Angeles Center
12:40PM 35.5833 -115.9044 50° Northeast 456 525 37,000  Level Los Angeles Center
12:41PM 35.6764 -115.7647 51° Northeast 454 522 37,000  Level Los Angeles Center
12:42PM 35.7558 -115.6461 50° Northeast 451 519 37,000  Level Los Angeles Center
12:43PM 35.8350 -115.5272 51° Northeast 450 518 37,000  Level Los Angeles Center
12:44PM 35.9292 -115.3858 51° Northeast 448 516 37,000  Level Los Angeles Center
12:46PM 36.0056 -115.2683 51° Northeast 444 511 37,000  Level Los Angeles Center
12:47PM 36.0903 -115.1219 54° Northeast 444 511 37,000  Level Los Angeles Center
12:48PM 36.1336 -114.9797 69° East 446 513 37,000  Level Los Angeles Center
12:49PM 36.1778 -114.8367 69° East 447 514 37,000  Level Los Angeles Center
12:50PM 36.2222 -114.6942 69° East 447 514 37,000  Level Los Angeles Center
12:51PM 36.2753 -114.5211 69° East 449 517 37,000  Level Los Angeles Center
12:52PM 36.3200 -114.3744 69° East 454 522 37,000  Level Los Angeles Center
12:53PM 36.3636 -114.2278 70° East 455 524 37,000  Level Los Angeles Center
12:54PM 36.4086 -114.0817 69° East 455 524 37,000  Level Los Angeles Center
12:55PM 36.4508 -113.9344 70° East 454 522 37,000  Level Los Angeles Center
12:56PM 36.4950 -113.7878 69° East 455 524 37,000  Level Los Angeles Center
12:57PM 36.5306 -113.6664 70° East 456 525 37,000  Level Los Angeles Center
12:58PM 36.5911 -113.4611 70° East 456 525 37,000  Level Los Angeles Center
12:59PM 36.6433 -113.2853 70° East 454 522 37,000  Level Los Angeles Center
01:00PM 36.6867 -113.1372 70° East 457 526 37,000  Level Los Angeles Center
01:01PM 36.7297 -112.9889 70° East 458 527 37,000  Level Los Angeles Center
01:02PM 36.7811 -112.8100 70° East 460 529 37,000  Level Los Angeles Center
01:03PM 36.8239 -112.6606 70° East 460 529 37,000  Level Los Angeles Center
01:04PM 36.8658 -112.5117 71° East 458 527 37,000  Level Los Angeles Center
01:05PM 36.9081 -112.3611 71° East 461 531 37,000  Level Los Angeles Center
01:06PM 36.9500 -112.2108 71° East 462 532 37,000  Level Los Angeles Center
01:07PM 37.0011 -112.0297 70° East 464 534 37,000  Level Los Angeles Center
01:08PM 37.0089 -112.0000 72° East 461 531 37,000  Level Denver Center
01:09PM 37.0592 -111.8183 71° East 463 533 37,000  Level Denver Center
01:10PM 37.1000 -111.6686 71° East 459 528 37,000  Level Denver Center
01:11PM 37.1411 -111.5192 71° East 457 526 37,000  Level Denver Center
01:12PM 37.1811 -111.3678 72° East 461 531 37,000  Level Denver Center
01:13PM 37.2211 -111.2167 72° East 459 528 37,000  Level Denver Center
01:14PM 37.2697 -111.0342 71° East 461 531 37,000  Level Denver Center
01:15PM 37.3092 -110.8825 72° East 460 529 37,000  Level Denver Center
01:16PM 37.3500 -110.7278 72° East 465 535 37,000  Level Denver Center
01:17PM 37.3911 -110.5739 71° East 465 535 37,000  Level Denver Center
01:18PM 37.4322 -110.4203 71° East 466 536 37,000  Level Denver Center
01:19PM 37.4722 -110.2667 72° East 464 534 37,000  Level Denver Center
01:20PM 37.5139 -110.1036 72° East 461 531 37,000  Level Denver Center
01:21PM 37.5583 -109.9322 72° East 460 529 37,000  Level Denver Center
01:22PM 37.5958 -109.7869 72° East 456 525 37,000  Level Denver Center
01:23PM 37.6392 -109.6158 72° East 457 526 37,000  Level Denver Center
01:24PM 37.6758 -109.4683 73° East 460 529 37,000  Level Denver Center
01:25PM 37.7194 -109.2958 72° East 461 531 37,000  Level Denver Center
01:26PM 37.7553 -109.1500 73° East 457 526 37,000  Level Denver Center
01:27PM 37.7978 -108.9778 73° East 457 526 37,000  Level Denver Center
01:29PM 37.8433 -108.8361 68° East 455 524 37,000  Level Denver Center
01:30PM 37.8997 -108.6733 66° East 452 520 37,000  Level Denver Center
01:31PM 37.9478 -108.5311 67° East 455 524 37,000  Level Denver Center
01:32PM 37.9967 -108.3908 66° East 455 524 37,000  Level Denver Center
01:33PM 38.0528 -108.2253 67° East 457 526 37,000  Level Denver Center
01:34PM 38.1072 -108.0650 67° East 463 533 37,000  Level Denver Center
01:35PM 38.1558 -107.9250 66° East 457 526 37,000  Level Denver Center
01:36PM 38.2125 -107.7603 66° East 456 525 37,000  Level Denver Center
01:37PM 38.2614 -107.6186 66° East 457 526 37,000  Level Denver Center
01:38PM 38.3172 -107.4522 67° East 459 528 37,000  Level Denver Center
01:39PM 38.3650 -107.3075 67° East 463 533 37,000  Level Denver Center
01:40PM 38.4128 -107.1650 67° East 458 527 37,000  Level Denver Center
01:41PM 38.4600 -107.0067 69° East 465 535 37,000  Level Denver Center
01:42PM 38.4978 -106.8194 75° East 465 535 37,000  Level Denver Center
01:43PM 38.5294 -106.6581 76° East 471 542 37,000  Level Denver Center
01:44PM 38.5608 -106.4978 76° East 467 537 37,000  Level Denver Center
01:45PM 38.5928 -106.3358 76° East 468 539 37,000  Level Denver Center
01:46PM 38.6256 -106.1589 77° East 464 534 37,000  Level Denver Center
01:47PM 38.6578 -105.9964 76° East 466 536 37,000  Level Denver Center
01:48PM 38.6875 -105.8350 77° East 463 533 37,000  Level Denver Center
01:49PM 38.7186 -105.6733 76° East 464 534 37,000  Level Denver Center
01:50PM 38.7486 -105.5125 77° East 462 532 37,000  Level Denver Center
01:51PM 38.7842 -105.3203 77° East 470 541 37,000  Level Denver Center
01:52PM 38.8136 -105.1594 77° East 463 533 37,000  Level Denver Center
01:53PM 38.8433 -104.9989 77° East 461 531 37,000  Level Denver Center
01:54PM 38.8719 -104.8356 77° East 466 536 37,000  Level Denver Center
01:55PM 38.9014 -104.6744 77° East 463 533 37,000  Level Denver Center
01:56PM 38.9303 -104.5114 77° East 465 535 37,000  Level Denver Center
01:57PM 38.9642 -104.3214 77° East 466 536 37,000  Level Denver Center
01:59PM 38.9908 -104.1600 78° East 462 532 37,000  Level Denver Center
02:00PM 39.0192 -103.9964 77° East 464 534 37,000  Level Denver Center
02:01PM 39.0464 -103.8339 78° East 463 533 37,000  Level Denver Center
02:02PM 39.0731 -103.6722 78° East 460 529 37,000  Level Denver Center
02:03PM 39.0997 -103.5078 78° East 463 533 37,000  Level Denver Center
02:04PM 39.1272 -103.3461 78° East 460 529 37,000  Level Denver Center
02:05PM 39.1594 -103.1556 78° East 462 532 37,000  Level Denver Center
02:06PM 39.1864 -102.9931 78° East 460 529 37,000  Level Denver Center
02:07PM 39.2122 -102.8292 78° East 465 535 37,000  Level Denver Center
02:08PM 39.2381 -102.6561 79° East 458 527 37,000  Level Denver Center
02:09PM 39.2633 -102.5014 78° East 460 529 37,000  Level Denver Center
02:10PM 39.2914 -102.3194 79° East 463 533 37,000  Level Denver Center
02:11PM 39.3158 -102.1650 78° East 460 529 37,000  Level Denver Center
02:12PM 39.3433 -101.9903 78° East 456 525 37,000  Level Denver Center
02:13PM 39.3664 -101.8364 79° East 458 527 37,000  Level Denver Center
02:14PM 39.3928 -101.6564 79° East 456 525 37,000  Level Denver Center
02:15PM 39.4194 -101.5014 77° East 460 529 37,000  Level Denver Center
02:16PM 39.4503 -101.3231 77° East 457 526 37,000  Level Denver Center
02:17PM 39.4767 -101.1672 78° East 462 532 37,000  Level Denver Center
02:18PM 39.5067 -100.9833 78° East 468 539 37,000  Level Denver Center
02:19PM 39.5333 -100.8261 78° East 468 539 37,000  Level Denver Center
02:20PM 39.5639 -100.6425 78° East 468 539 37,000  Level Denver Center
02:21PM 39.5906 -100.4853 78° East 468 539 37,000  Level Denver Center
02:22PM 39.6172 -100.3286 77° East 469 540 37,000  Level Denver Center
02:23PM 39.6464 -100.1447 78° East 469 540 37,000  Level Denver Center
02:24PM 39.6706 -99.9867 79° East 467 537 37,000  Level Denver Center
02:25PM 39.6978 -99.8114 79° East 467 537 37,000  Level Denver Center
02:26PM 39.7239 -99.6481 78° East 464 534 37,000  Level Denver Center
02:27PM 39.7492 -99.4825 79° East 466 536 37,000  Level Denver Center
02:28PM 39.7789 -99.2858 79° East 464 534 37,000  Level Denver Center
02:30PM 39.8042 -99.1236 78° East 460 529 37,000  Level Denver Center
02:31PM 39.8283 -98.9581 79° East 464 534 37,000  Level Denver Center
02:31PM 39.8431 -98.8617 79° East 461 531 37,000  Level Minneapolis Center
02:32PM 39.8678 -98.6986 79° East 461 531 37,000  Level Minneapolis Center
02:33PM 39.8767 -98.6319 80° East 463 533 37,000  Level Denver Center
02:33PM 39.8911 -98.5350 79° East 461 531 37,000  Level Minneapolis Center
02:34PM 39.9150 -98.3717 79° East 461 531 37,000  Level Minneapolis Center
02:35PM 39.9386 -98.2078 79° East 461 531 37,000  Level Minneapolis Center
02:36PM 39.9703 -97.9767 80° East 464 534 37,000  Level Minneapolis Center
02:37PM 39.9928 -97.8117 80° East 464 534 37,000  Level Minneapolis Center
02:39PM 40.0158 -97.6464 80° East 465 535 37,000  Level Minneapolis Center
02:40PM 40.0381 -97.4811 80° East 464 534 37,000  Level Minneapolis Center
02:41PM 40.0628 -97.2939 80° East 467 537 37,000  Level Minneapolis Center
02:42PM 40.0847 -97.1258 80° East 469 540 37,000  Level Minneapolis Center
02:43PM 40.1056 -96.9600 81° East 466 536 37,000  Level Minneapolis Center
02:44PM 40.1269 -96.7933 80° East 467 537 37,000  Level Minneapolis Center
02:45PM 40.1492 -96.6258 80° East 467 537 37,000  Level Minneapolis Center
02:46PM 40.1703 -96.4594 81° East 467 537 37,000  Level Minneapolis Center
02:47PM 40.1953 -96.2614 81° East 463 533 37,000  Level Minneapolis Center
02:48PM 40.2031 -96.0914 87° East 469 540 37,000  Level Minneapolis Center
02:49PM 40.2008 -95.9211 91° East 470 541 37,000  Level Minneapolis Center
02:50PM 40.2003 -95.7475 90° East 475 547 37,000  Level Minneapolis Center
02:51PM 40.1992 -95.5786 90° East 469 540 37,000  Level Minneapolis Center
02:52PM 40.1989 -95.4083 90° East 469 540 37,000  Level Minneapolis Center
02:53PM 40.1956 -95.2069 91° East 467 537 37,000  Level Minneapolis Center
02:54PM 40.1931 -95.0378 91° East 466 536 37,000  Level Minneapolis Center
02:55PM 40.1911 -94.8681 91° East 467 537 37,000  Level Minneapolis Center
02:56PM 40.1886 -94.6972 91° East 469 540 37,000  Level Minneapolis Center
02:57PM 40.1856 -94.5311 91° East 469 540 37,000  Level Minneapolis Center
02:58PM 40.1831 -94.3597 91° East 472 543 37,000  Level Minneapolis Center
02:58PM 40.1819 -94.2886 91° East 468 539 37,000  Level Kansas City Center
02:59PM 40.1789 -94.1278 91° East 465 535 37,000  Level Kansas City Center
03:00PM 40.1733 -93.9553 92° East 471 542 37,000  Level Kansas City Center
03:02PM 40.1689 -93.6550 91° East 467 537 37,000  Level Minneapolis Center
03:03PM 40.1644 -93.5869 95° East 467 537 37,000  Level Kansas City Center
03:04PM 40.1594 -93.4189 92° East 467 537 37,000  Level Kansas City Center
03:05PM 40.1556 -93.2497 92° East 469 540 37,000  Level Kansas City Center
03:06PM 40.1500 -93.0783 92° East 475 547 37,000  Level Kansas City Center
03:07PM 40.1461 -92.8997 92° East 474 545 37,000  Level Kansas City Center
03:08PM 40.1392 -92.7064 93° East 476 548 37,000  Level Kansas City Center
03:09PM 40.1550 -92.5467 83° East 470 541 37,000  Level Kansas City Center
03:10PM 40.2153 -92.3806 65° Northeast 449 517 37,000  Level Kansas City Center
03:11PM 40.2700 -92.2236 65° Northeast 453 521 37,000  Level Kansas City Center
03:12PM 40.3219 -92.0767 65° Northeast 451 519 37,000  Level Kansas City Center
03:13PM 40.3739 -91.9289 65° Northeast 451 519 37,000 -240 Level Kansas City Center
03:14PM 40.4250 -91.7828 65° Northeast 448 516 36,600 -1,080 Descending Kansas City Center
03:15PM 40.4753 -91.6350 66° East 448 516 34,800 -1,800 Descending Kansas City Center
03:16PM 40.5350 -91.4547 66° East 451 519 33,000 -900 Descending Kansas City Center
03:17PM 40.5869 -91.3064 65° Northeast 449 517 33,000  Level Chicago Center
03:18PM 40.6411 -91.1503 65° Northeast 452 520 33,000  Level Chicago Center
03:19PM 40.6939 -90.9969 66° East 458 527 33,000  Level Chicago Center
03:20PM 40.7472 -90.8433 65° Northeast 460 529 33,000  Level Chicago Center
03:21PM 40.7967 -90.6911 67° East 453 521 33,000 -120 Level Chicago Center
03:22PM 40.8486 -90.5403 65° Northeast 449 517 32,800 -600 Descending Chicago Center
03:23PM 40.9089 -90.3569 66° East 450 518 31,800 -960 Descending Chicago Center
03:24PM 40.9628 -90.1967 66° East 446 513 30,900 -780 Descending Chicago Center
03:25PM 41.0092 -90.0558 66° East 443 510 30,200 -1,020 Descending Chicago Center
03:26PM 41.0569 -89.9072 67° East 437 503 28,800 -1,920 Descending Chicago Center
03:27PM 41.1042 -89.7631 66° East 426 490 26,300 -2,520 Descending Chicago Center
03:28PM 41.1525 -89.6122 67° East 436 502 23,600 -2,280 Descending Chicago Center
03:29PM 41.2094 -89.4653 63° Northeast 444 511 21,600 -2,100 Descending Chicago Center
03:30PM 41.2769 -89.2992 62° Northeast 431 496 19,300 -2,040 Descending Chicago Center
03:32PM 41.3294 -89.1672 62° Northeast 411 473 17,500 -1,800 Descending Chicago Center
03:33PM 41.3806 -89.0347 63° Northeast 405 466 15,600 -1,800 Descending Chicago Center
03:34PM 41.4328 -88.9089 61° Northeast 391 450 13,900 -1,800 Descending Chicago Center
03:35PM 41.4825 -88.7831 62° Northeast 385 443 12,000 -1,380 Descending Chicago Center
03:36PM 41.5375 -88.6425 62° Northeast 353 406 11,100 -480 Descending Chicago Center
03:37PM 41.5797 -88.5358 62° Northeast 326 375 11,100 -60 Level Chicago Center
03:38PM 41.6292 -88.4314 58° Northeast 332 382 11,000 -480 Descending Chicago Center
03:39PM 41.6847 -88.3364 52° Northeast 325 374 10,200 -900 Descending Chicago Center
03:40PM 41.7486 -88.2781 34° Northeast 295 339 9,200 -1,200 Descending Chicago Center
03:41PM 41.8231 -88.2469 17° North 280 322 7,800 -1,320 Descending Chicago Center
03:42PM 41.8875 -88.2172 19° North 243 280 6,500 -1,740 Descending Chicago Center
03:43PM 41.9539 -88.1886 18° North 216 249 4,300 -2,160 Descending Chicago Center